createdAt,value
2023-05-15T00:01:24.606Z,100.00
2023-05-15T00:04:27.559Z,100.00
2023-05-15T00:07:30.506Z,100.00
2023-05-15T00:10:33.261Z,100.00
2023-05-15T00:13:35.856Z,100.00
2023-05-15T00:16:38.881Z,100.00
2023-05-15T00:19:41.545Z,100.00
2023-05-15T00:22:44.635Z,100.00
2023-05-15T00:25:47.250Z,100.00
2023-05-15T00:28:50.782Z,100.00
2023-05-15T00:31:53.437Z,100.00
2023-05-15T00:34:56.316Z,100.00
2023-05-15T00:37:58.826Z,100.00
2023-05-15T00:41:02.466Z,100.00
2023-05-15T00:44:06.077Z,100.00
2023-05-15T00:47:11.739Z,100.00
2023-05-15T00:50:15.010Z,100.00
2023-05-15T00:53:18.997Z,100.00
2023-05-15T00:56:22.068Z,100.00
2023-05-15T00:59:31.894Z,100.00
2023-05-15T01:02:34.544Z,100.00
2023-05-15T01:05:37.629Z,100.00
2023-05-15T01:08:46.364Z,100.00
2023-05-15T01:11:50.932Z,100.00
2023-05-15T01:14:53.838Z,100.00
2023-05-15T01:17:57.093Z,100.00
2023-05-15T01:21:05.664Z,100.00
2023-05-15T01:24:32.549Z,100.00
2023-05-15T01:27:47.220Z,100.00
2023-05-15T01:30:52.635Z,100.00
2023-05-15T01:34:02.416Z,100.00
2023-05-15T01:37:08.428Z,100.00
2023-05-15T01:40:14.333Z,100.00
2023-05-15T01:43:22.008Z,100.00
2023-05-15T01:46:29.677Z,100.00
2023-05-15T01:49:35.756Z,100.00
2023-05-15T01:52:41.936Z,100.00
2023-05-15T01:55:45.489Z,100.00
2023-05-15T01:58:48.819Z,100.00
2023-05-15T02:01:52.539Z,100.00
2023-05-15T02:04:56.872Z,100.00
2023-05-15T02:08:00.624Z,100.00
2023-05-15T02:11:03.904Z,100.00
2023-05-15T02:14:09.245Z,100.00
2023-05-15T02:17:11.912Z,100.00
2023-05-15T02:20:14.701Z,100.00
2023-05-15T02:23:17.303Z,100.00
2023-05-15T02:26:41.251Z,100.00
2023-05-15T02:30:14.635Z,100.00
2023-05-15T02:33:18.867Z,100.00
2023-05-15T02:36:25.444Z,100.00
2023-05-15T02:39:30.066Z,100.00
2023-05-15T02:42:33.695Z,100.00
2023-05-15T02:45:37.055Z,100.00
2023-05-15T02:48:41.675Z,100.00
2023-05-15T02:51:44.454Z,100.00
2023-05-15T02:54:47.345Z,100.00
2023-05-15T02:57:50.117Z,100.00
2023-05-15T03:00:52.683Z,100.00
2023-05-15T03:03:55.545Z,100.00
2023-05-15T03:06:58.100Z,100.00
2023-05-15T03:10:00.794Z,100.00
2023-05-15T03:13:03.292Z,100.00
2023-05-15T03:16:06.249Z,100.00
2023-05-15T03:19:08.732Z,100.00
2023-05-15T03:22:11.706Z,100.00
2023-05-15T03:25:14.267Z,100.00
2023-05-15T03:28:16.970Z,100.00
2023-05-15T03:31:19.510Z,100.00
2023-05-15T03:34:22.408Z,100.00
2023-05-15T03:37:24.906Z,100.00
2023-05-15T03:40:27.677Z,100.00
2023-05-15T03:43:30.120Z,100.00
2023-05-15T03:46:33.042Z,100.00
2023-05-15T03:49:35.506Z,100.00
2023-05-15T03:52:40.817Z,100.00
2023-05-15T03:55:44.762Z,100.00
2023-05-15T03:58:47.473Z,100.00
2023-05-15T04:02:03.358Z,100.00
2023-05-15T04:05:08.959Z,100.00
2023-05-15T04:08:12.533Z,100.00
2023-05-15T04:11:16.321Z,100.00
2023-05-15T04:14:18.917Z,100.00
2023-05-15T04:17:21.701Z,100.00
2023-05-15T04:20:25.187Z,100.00
2023-05-15T04:23:28.134Z,100.00
2023-05-15T04:26:31.604Z,100.00
2023-05-15T04:29:34.480Z,100.00
2023-05-15T04:32:37.917Z,100.00
2023-05-15T04:35:40.942Z,100.00
2023-05-15T04:38:43.414Z,100.00
2023-05-15T04:41:46.473Z,100.00
2023-05-15T04:44:49.237Z,100.00
2023-05-15T04:47:52.065Z,100.00
2023-05-15T04:50:54.611Z,100.00
2023-05-15T04:53:57.470Z,100.00
2023-05-15T04:57:00.207Z,100.00
2023-05-15T05:00:05.919Z,100.00
2023-05-15T05:03:08.657Z,100.00
2023-05-15T05:06:11.711Z,100.00
2023-05-15T05:09:14.673Z,100.00
2023-05-15T05:12:17.418Z,100.00
2023-05-15T05:15:20.043Z,100.00
2023-05-15T05:18:22.900Z,100.00
2023-05-15T05:21:25.413Z,100.00
2023-05-15T05:24:28.528Z,100.00
2023-05-15T05:27:31.097Z,100.00
2023-05-15T05:30:34.164Z,100.00
2023-05-15T05:33:36.771Z,100.00
2023-05-15T05:36:39.573Z,100.00
2023-05-15T05:39:42.126Z,100.00
2023-05-15T05:42:45.010Z,100.00
2023-05-15T05:45:48.236Z,100.00
2023-05-15T05:48:51.538Z,100.00
2023-05-15T05:51:54.168Z,100.00
2023-05-15T05:54:57.127Z,100.00
2023-05-15T05:57:59.795Z,100.00
2023-05-15T06:01:02.649Z,100.00
2023-05-15T06:04:05.979Z,100.00
2023-05-15T06:07:08.817Z,100.00
2023-05-15T06:10:12.904Z,100.00
2023-05-15T06:13:15.449Z,100.00
2023-05-15T06:16:18.191Z,100.00
2023-05-15T06:19:22.014Z,100.00
2023-05-15T06:22:25.044Z,100.00
2023-05-15T06:25:27.466Z,100.00
2023-05-15T06:28:30.188Z,100.00
2023-05-15T06:31:32.900Z,100.00
2023-05-15T06:34:35.705Z,100.00
2023-05-15T06:37:38.633Z,100.00
2023-05-15T06:40:41.446Z,100.00
2023-05-15T06:43:44.051Z,100.00
2023-05-15T06:46:46.895Z,100.00
2023-05-15T06:49:49.438Z,100.00
2023-05-15T06:52:52.243Z,100.00
2023-05-15T06:55:54.787Z,100.00
2023-05-15T06:58:57.565Z,100.00
2023-05-15T07:02:00.272Z,100.00
2023-05-15T07:05:03.352Z,100.00
2023-05-15T07:08:06.226Z,100.00
2023-05-15T07:11:09.009Z,100.00
2023-05-15T07:14:11.467Z,100.00
2023-05-15T07:17:14.247Z,100.00
2023-05-15T07:20:16.725Z,100.00
2023-05-15T07:23:19.622Z,100.00
2023-05-15T07:26:34.488Z,100.00
2023-05-15T07:29:43.233Z,100.00
2023-05-15T07:32:47.193Z,100.00
2023-05-15T07:35:52.259Z,100.00
2023-05-15T07:38:54.932Z,100.00
2023-05-15T07:41:59.605Z,100.00
2023-05-15T07:45:03.532Z,100.00
2023-05-15T07:48:17.861Z,100.00
2023-05-15T07:51:20.437Z,100.00
2023-05-15T07:54:23.389Z,100.00
2023-05-15T07:57:26.486Z,100.00
2023-05-15T08:00:29.602Z,100.00
2023-05-15T08:03:33.032Z,100.00
2023-05-15T08:06:38.325Z,100.00
2023-05-15T08:09:41.612Z,100.00
2023-05-15T08:12:46.635Z,100.00
2023-05-15T08:15:49.441Z,100.00
2023-05-15T08:18:58.696Z,100.00
2023-05-15T08:22:01.592Z,100.00
2023-05-15T08:25:05.770Z,100.00
2023-05-15T08:28:08.715Z,100.00
2023-05-15T08:31:11.266Z,100.00
2023-05-15T08:34:14.093Z,100.00
2023-05-15T08:37:17.918Z,100.00
2023-05-15T08:40:31.110Z,100.00
2023-05-15T08:43:41.819Z,100.00
2023-05-15T08:46:45.433Z,100.00
2023-05-15T08:50:00.719Z,100.00
2023-05-15T08:53:03.902Z,100.00
2023-05-15T08:56:06.664Z,100.00
2023-05-15T08:59:09.399Z,100.00
2023-05-15T09:02:12.122Z,100.00
2023-05-15T09:05:15.078Z,100.00
2023-05-15T09:08:19.175Z,100.00
2023-05-15T09:11:24.597Z,100.00
2023-05-15T09:14:27.087Z,100.00
2023-05-15T09:17:30.093Z,100.00
2023-05-15T09:20:37.538Z,100.00
2023-05-15T09:23:40.239Z,100.00
2023-05-15T09:26:43.510Z,100.00
2023-05-15T09:29:46.616Z,100.00
2023-05-15T09:32:49.984Z,97.45
2023-05-15T09:35:53.263Z,100.00
2023-05-15T09:39:00.342Z,100.00
2023-05-15T09:42:07.944Z,100.00
2023-05-15T09:45:18.228Z,96.14
2023-05-15T09:48:25.551Z,95.89
2023-05-15T09:51:28.624Z,90.40
2023-05-15T09:54:32.162Z,93.80
2023-05-15T09:57:34.890Z,100.00
2023-05-15T10:00:47.729Z,98.79
2023-05-15T10:04:03.680Z,100.00
2023-05-15T10:07:08.160Z,100.00
2023-05-15T10:10:11.454Z,100.00
2023-05-15T10:13:14.280Z,100.00
2023-05-15T10:16:21.311Z,100.00
2023-05-15T10:19:28.246Z,100.00
2023-05-15T10:22:35.944Z,100.00
2023-05-15T10:25:39.588Z,81.39
2023-05-15T10:28:45.318Z,73.92
2023-05-15T10:31:49.098Z,74.85
2023-05-15T10:34:54.113Z,80.90
2023-05-15T10:37:57.322Z,72.10
2023-05-15T10:41:16.415Z,76.35
2023-05-15T10:44:29.881Z,75.34
2023-05-15T10:47:34.960Z,79.87
2023-05-15T10:50:40.576Z,68.39
2023-05-15T10:53:44.637Z,62.00
2023-05-15T10:56:51.345Z,62.62
2023-05-15T10:59:55.770Z,63.78
2023-05-15T11:02:59.293Z,62.69
2023-05-15T11:06:12.867Z,61.11
2023-05-15T11:09:21.383Z,60.59
2023-05-15T11:12:49.866Z,61.94
2023-05-15T11:15:53.944Z,66.27
2023-05-15T11:18:56.858Z,70.40
2023-05-15T11:22:01.921Z,73.41
2023-05-15T11:25:10.477Z,57.19
2023-05-15T11:28:23.160Z,54.03
2023-05-15T11:31:30.978Z,60.81
2023-05-15T11:34:35.102Z,76.55
2023-05-15T11:37:43.994Z,78.21
2023-05-15T11:40:47.792Z,77.22
2023-05-15T11:43:50.839Z,79.10
2023-05-15T11:46:54.233Z,78.29
2023-05-15T11:49:57.440Z,83.21
2023-05-15T11:53:06.174Z,83.86
2023-05-15T11:56:23.055Z,92.15
2023-05-15T11:59:27.583Z,92.28
2023-05-15T12:02:30.579Z,90.91
2023-05-15T12:05:33.608Z,100.00
2023-05-15T12:08:40.082Z,98.93
2023-05-15T12:11:51.488Z,100.00
2023-05-15T12:14:58.648Z,100.00
2023-05-15T12:18:04.270Z,100.00
2023-05-15T12:21:06.743Z,100.00
2023-05-15T12:24:12.805Z,100.00
2023-05-15T12:27:16.516Z,98.24
2023-05-15T12:30:19.688Z,97.77
2023-05-15T12:33:23.663Z,100.00
2023-05-15T12:36:29.829Z,100.00
2023-05-15T12:39:32.683Z,100.00
2023-05-15T12:42:43.854Z,100.00
2023-05-15T12:45:46.681Z,100.00
2023-05-15T12:48:51.769Z,100.00
2023-05-15T12:51:54.323Z,100.00
2023-05-15T12:55:00.684Z,100.00
2023-05-15T12:58:08.067Z,100.00
2023-05-15T13:01:11.305Z,94.11
2023-05-15T13:04:16.332Z,92.30
2023-05-15T13:07:23.351Z,93.39
2023-05-15T13:10:26.917Z,90.01
2023-05-15T13:13:46.772Z,90.95
2023-05-15T13:16:49.655Z,89.47
2023-05-15T13:19:54.381Z,91.26
2023-05-15T13:22:56.863Z,93.91
2023-05-15T13:25:59.681Z,96.76
2023-05-15T13:29:02.212Z,97.86
2023-05-15T13:32:07.806Z,100.00
2023-05-15T13:35:11.393Z,99.58
2023-05-15T13:38:14.221Z,99.22
2023-05-15T13:41:18.104Z,100.00
2023-05-15T13:44:21.674Z,97.57
2023-05-15T13:47:24.655Z,94.98
2023-05-15T13:50:27.722Z,91.72
2023-05-15T13:53:30.415Z,95.69
2023-05-15T13:56:33.473Z,96.35
2023-05-15T13:59:37.170Z,97.93
2023-05-15T14:02:43.655Z,100.00
2023-05-15T14:05:49.778Z,96.98
2023-05-15T14:08:52.194Z,99.78
2023-05-15T14:11:55.307Z,100.00
2023-05-15T14:14:58.139Z,98.71
2023-05-15T14:18:03.485Z,98.48
2023-05-15T14:21:09.454Z,98.57
2023-05-15T14:24:14.507Z,98.11
2023-05-15T14:27:17.229Z,100.00
2023-05-15T14:30:22.118Z,100.00
2023-05-15T14:33:26.522Z,100.00
2023-05-15T14:36:30.263Z,100.00
2023-05-15T14:39:32.924Z,100.00
2023-05-15T14:42:35.782Z,100.00
2023-05-15T14:45:38.298Z,100.00
2023-05-15T14:48:41.261Z,100.00
2023-05-15T14:51:43.799Z,100.00
2023-05-15T14:54:56.993Z,100.00
2023-05-15T14:58:11.377Z,100.00
2023-05-15T15:01:14.430Z,99.70
2023-05-15T15:04:20.651Z,100.00
2023-05-15T15:07:28.884Z,100.00
2023-05-15T15:10:33.552Z,100.00
2023-05-15T15:13:36.353Z,100.00
2023-05-15T15:16:39.044Z,100.00
2023-05-15T15:19:41.797Z,100.00
2023-05-15T15:22:44.626Z,100.00
2023-05-15T15:25:50.057Z,100.00
2023-05-15T15:28:52.767Z,100.00
2023-05-15T15:31:55.872Z,100.00
2023-05-15T15:35:00.862Z,97.52
2023-05-15T15:38:03.747Z,96.64
2023-05-15T15:41:09.114Z,93.49
2023-05-15T15:44:13.473Z,97.07
2023-05-15T15:47:16.043Z,93.73
2023-05-15T15:50:19.004Z,93.03
2023-05-15T15:53:22.051Z,88.27
2023-05-15T15:56:24.765Z,89.01
2023-05-15T15:59:27.205Z,90.14
2023-05-15T16:02:30.034Z,87.79
2023-05-15T16:05:33.001Z,90.51
2023-05-15T16:08:35.553Z,91.31
2023-05-15T16:11:38.379Z,92.02
2023-05-15T16:14:40.932Z,93.17
2023-05-15T16:17:44.409Z,94.60
2023-05-15T16:20:48.401Z,96.87
2023-05-15T16:23:51.402Z,96.69
2023-05-15T16:26:55.166Z,98.04
2023-05-15T16:29:58.097Z,98.15
2023-05-15T16:33:00.969Z,100.00
2023-05-15T16:36:05.191Z,95.81
2023-05-15T16:39:08.010Z,97.21
2023-05-15T16:42:10.837Z,98.60
2023-05-15T16:45:13.494Z,97.17
2023-05-15T16:48:16.376Z,98.18
2023-05-15T16:51:19.185Z,100.00
2023-05-15T16:54:22.152Z,100.00
2023-05-15T16:57:24.602Z,100.00
2023-05-15T17:00:27.636Z,100.00
2023-05-15T17:03:31.574Z,100.00
2023-05-15T17:06:36.068Z,100.00
2023-05-15T17:09:40.204Z,100.00
2023-05-15T17:12:43.027Z,100.00
2023-05-15T17:15:47.220Z,100.00
2023-05-15T17:18:50.157Z,100.00
2023-05-15T17:21:52.710Z,100.00
2023-05-15T17:24:55.497Z,100.00
2023-05-15T17:27:57.965Z,100.00
2023-05-15T17:31:00.854Z,100.00
2023-05-15T17:34:03.458Z,100.00
2023-05-15T17:37:06.347Z,100.00
2023-05-15T17:40:09.273Z,100.00
2023-05-15T17:43:12.019Z,100.00
2023-05-15T17:46:14.651Z,100.00
2023-05-15T17:49:17.722Z,100.00
2023-05-15T17:52:22.665Z,100.00
2023-05-15T17:55:25.797Z,100.00
2023-05-15T17:58:28.730Z,100.00
2023-05-15T18:01:31.683Z,100.00
2023-05-15T18:04:34.684Z,100.00
2023-05-15T18:07:37.351Z,100.00
2023-05-15T18:10:40.597Z,100.00
2023-05-15T18:13:44.090Z,100.00
2023-05-15T18:16:47.177Z,100.00
2023-05-15T18:19:49.886Z,100.00
2023-05-15T18:22:52.925Z,100.00
2023-05-15T18:25:55.923Z,100.00
2023-05-15T18:28:59.185Z,100.00
2023-05-15T18:32:02.399Z,100.00
2023-05-15T18:35:05.977Z,100.00
2023-05-15T18:38:09.650Z,100.00
2023-05-15T18:41:13.176Z,100.00
2023-05-15T18:44:16.045Z,100.00
2023-05-15T18:47:19.379Z,100.00
2023-05-15T18:50:24.928Z,100.00
2023-05-15T18:53:28.205Z,100.00
2023-05-15T18:56:31.147Z,100.00
2023-05-15T18:59:34.764Z,100.00
2023-05-15T19:02:40.157Z,100.00
2023-05-15T19:05:44.589Z,100.00
2023-05-15T19:08:48.398Z,100.00
2023-05-15T19:11:52.848Z,100.00
2023-05-15T19:14:55.886Z,100.00
2023-05-15T19:17:59.131Z,100.00
2023-05-15T19:21:02.176Z,100.00
2023-05-15T19:24:06.346Z,100.00
2023-05-15T19:27:09.294Z,100.00
2023-05-15T19:30:12.643Z,100.00
2023-05-15T19:33:16.066Z,100.00
2023-05-15T19:36:19.410Z,100.00
2023-05-15T19:39:22.194Z,100.00
2023-05-15T19:42:26.090Z,100.00
2023-05-15T19:45:30.550Z,100.00
2023-05-15T19:48:33.728Z,100.00
2023-05-15T19:51:36.376Z,100.00
2023-05-15T19:54:39.536Z,100.00
2023-05-15T19:57:45.008Z,100.00
2023-05-15T20:00:48.405Z,100.00
2023-05-15T20:03:51.492Z,100.00
2023-05-15T20:06:54.566Z,100.00
2023-05-15T20:09:57.648Z,100.00
2023-05-15T20:13:00.666Z,100.00
2023-05-15T20:16:07.121Z,100.00
2023-05-15T20:19:10.943Z,100.00
2023-05-15T20:22:14.253Z,100.00
2023-05-15T20:25:16.922Z,100.00
2023-05-15T20:28:21.498Z,100.00
2023-05-15T20:31:23.978Z,100.00
2023-05-15T20:34:26.925Z,100.00
2023-05-15T20:37:30.337Z,100.00
2023-05-15T20:40:33.177Z,100.00
2023-05-15T20:43:35.670Z,100.00
2023-05-15T20:46:39.996Z,100.00
2023-05-15T20:49:42.950Z,100.00
2023-05-15T20:52:46.216Z,100.00
2023-05-15T20:55:48.745Z,100.00
2023-05-15T20:58:51.951Z,100.00
2023-05-15T21:01:54.418Z,100.00
2023-05-15T21:04:57.097Z,100.00
2023-05-15T21:07:59.630Z,100.00
2023-05-15T21:11:02.497Z,100.00
2023-05-15T21:14:05.931Z,100.00
2023-05-15T21:17:09.076Z,100.00
2023-05-15T21:20:11.967Z,100.00
2023-05-15T21:23:14.938Z,100.00
2023-05-15T21:26:17.464Z,100.00
2023-05-15T21:29:20.264Z,100.00
2023-05-15T21:32:23.360Z,100.00
2023-05-15T21:35:28.845Z,100.00
2023-05-15T21:38:31.683Z,100.00
2023-05-15T21:41:34.670Z,100.00
2023-05-15T21:44:37.159Z,100.00
2023-05-15T21:47:40.402Z,100.00
2023-05-15T21:50:42.840Z,100.00
2023-05-15T21:53:45.696Z,100.00
2023-05-15T21:56:48.181Z,100.00
2023-05-15T21:59:51.210Z,100.00
2023-05-15T22:02:53.735Z,100.00
2023-05-15T22:05:56.873Z,100.00
2023-05-15T22:08:59.368Z,100.00
2023-05-15T22:12:02.156Z,100.00
2023-05-15T22:15:05.081Z,100.00
2023-05-15T22:18:08.237Z,100.00
2023-05-15T22:21:11.389Z,100.00
2023-05-15T22:24:14.171Z,100.00
2023-05-15T22:27:17.419Z,100.00
2023-05-15T22:30:20.467Z,100.00
2023-05-15T22:33:24.414Z,100.00
2023-05-15T22:36:27.323Z,100.00
2023-05-15T22:39:29.754Z,100.00
2023-05-15T22:42:32.503Z,100.00
2023-05-15T22:45:34.990Z,100.00
2023-05-15T22:48:37.819Z,100.00
2023-05-15T22:51:40.381Z,100.00
2023-05-15T22:54:43.147Z,100.00
2023-05-15T22:57:45.748Z,100.00
2023-05-15T23:00:48.502Z,100.00
2023-05-15T23:03:51.169Z,100.00
2023-05-15T23:06:53.896Z,100.00
2023-05-15T23:09:56.397Z,100.00
2023-05-15T23:12:59.208Z,100.00
2023-05-15T23:16:01.791Z,100.00
2023-05-15T23:19:04.622Z,100.00
2023-05-15T23:22:07.112Z,100.00
2023-05-15T23:25:10.156Z,100.00
2023-05-15T23:28:12.643Z,100.00
2023-05-15T23:31:15.788Z,100.00
2023-05-15T23:34:18.627Z,100.00
2023-05-15T23:37:21.435Z,100.00
2023-05-15T23:40:23.948Z,100.00
2023-05-15T23:43:28.369Z,100.00
2023-05-15T23:46:31.187Z,100.00
2023-05-15T23:49:34.156Z,100.00
2023-05-15T23:52:36.726Z,100.00
2023-05-15T23:55:39.476Z,100.00
2023-05-15T23:58:41.933Z,100.00
